sensor_id;sensor_type;location;lat;lon;timestamp;temperature;humidity
21895;DHT22;11112;51.270;7.224;2023-05-16T00:01:10;15.80;98.10
21895;DHT22;11112;51.270;7.224;2023-05-16T00:03:38;15.70;98.10
21895;DHT22;11112;51.270;7.224;2023-05-16T00:06:05;15.70;98.40
21895;DHT22;11112;51.270;7.224;2023-05-16T00:08:33;15.70;97.90
21895;DHT22;11112;51.270;7.224;2023-05-16T00:11:00;15.60;97.60
21895;DHT22;11112;51.270;7.224;2023-05-16T00:13:29;15.50;97.90
21895;DHT22;11112;51.270;7.224;2023-05-16T00:15:56;15.40;98.00
21895;DHT22;11112;51.270;7.224;2023-05-16T00:18:27;15.50;98.30
21895;DHT22;11112;51.270;7.224;2023-05-16T00:20:54;15.60;98.30
21895;DHT22;11112;51.270;7.224;2023-05-16T00:23:21;15.70;98.20
21895;DHT22;11112;51.270;7.224;2023-05-16T00:25:48;15.70;98.20
21895;DHT22;11112;51.270;7.224;2023-05-16T00:28:15;15.70;98.20
21895;DHT22;11112;51.270;7.224;2023-05-16T00:30:44;15.60;98.00
21895;DHT22;11112;51.270;7.224;2023-05-16T00:33:11;15.70;97.80
21895;DHT22;11112;51.270;7.224;2023-05-16T00:35:38;15.40;98.10
21895;DHT22;11112;51.270;7.224;2023-05-16T00:38:05;15.50;98.10
21895;DHT22;11112;51.270;7.224;2023-05-16T00:40:32;15.30;97.80
21895;DHT22;11112;51.270;7.224;2023-05-16T00:43:02;15.10;98.20
21895;DHT22;11112;51.270;7.224;2023-05-16T00:45:29;15.10;98.60
21895;DHT22;11112;51.270;7.224;2023-05-16T00:47:58;15.20;98.70
21895;DHT22;11112;51.270;7.224;2023-05-16T00:50:25;15.30;98.60
21895;DHT22;11112;51.270;7.224;2023-05-16T00:52:53;15.30;98.60
21895;DHT22;11112;51.270;7.224;2023-05-16T00:55:20;15.30;98.70
21895;DHT22;11112;51.270;7.224;2023-05-16T00:57:48;15.30;98.80
21895;DHT22;11112;51.270;7.224;2023-05-16T01:00:16;15.30;99.00
21895;DHT22;11112;51.270;7.224;2023-05-16T01:02:44;15.20;98.40
21895;DHT22;11112;51.270;7.224;2023-05-16T01:05:13;15.20;98.90
21895;DHT22;11112;51.270;7.224;2023-05-16T01:07:43;15.00;98.10
21895;DHT22;11112;51.270;7.224;2023-05-16T01:10:11;14.70;97.90
21895;DHT22;11112;51.270;7.224;2023-05-16T01:12:44;14.80;98.60
21895;DHT22;11112;51.270;7.224;2023-05-16T01:15:21;14.90;98.30
21895;DHT22;11112;51.270;7.224;2023-05-16T01:17:54;14.80;98.20
21895;DHT22;11112;51.270;7.224;2023-05-16T01:20:32;14.80;98.10
21895;DHT22;11112;51.270;7.224;2023-05-16T01:23:16;14.80;98.50
21895;DHT22;11112;51.270;7.224;2023-05-16T01:25:56;14.80;98.30
21895;DHT22;11112;51.270;7.224;2023-05-16T01:28:37;14.80;98.60
21895;DHT22;11112;51.270;7.224;2023-05-16T01:31:05;14.80;98.90
21895;DHT22;11112;51.270;7.224;2023-05-16T01:33:32;14.80;98.60
21895;DHT22;11112;51.270;7.224;2023-05-16T01:36:05;14.90;98.50
21895;DHT22;11112;51.270;7.224;2023-05-16T01:38:40;14.90;98.50
21895;DHT22;11112;51.270;7.224;2023-05-16T01:41:20;14.80;98.60
21895;DHT22;11112;51.270;7.224;2023-05-16T01:43:51;14.90;98.40
21895;DHT22;11112;51.270;7.224;2023-05-16T01:46:25;14.90;98.30
21895;DHT22;11112;51.270;7.224;2023-05-16T01:49:00;14.70;98.10
21895;DHT22;11112;51.270;7.224;2023-05-16T01:51:32;14.70;98.30
21895;DHT22;11112;51.270;7.224;2023-05-16T01:54:05;14.80;98.40
21895;DHT22;11112;51.270;7.224;2023-05-16T01:56:41;14.90;98.40
21895;DHT22;11112;51.270;7.224;2023-05-16T01:59:11;14.80;98.20
21895;DHT22;11112;51.270;7.224;2023-05-16T02:01:38;14.70;97.80
21895;DHT22;11112;51.270;7.224;2023-05-16T02:04:05;14.60;98.00
21895;DHT22;11112;51.270;7.224;2023-05-16T02:06:32;14.50;98.10
21895;DHT22;11112;51.270;7.224;2023-05-16T02:08:59;14.50;98.10
21895;DHT22;11112;51.270;7.224;2023-05-16T02:11:26;14.50;98.10
21895;DHT22;11112;51.270;7.224;2023-05-16T02:13:55;14.30;98.10
21895;DHT22;11112;51.270;7.224;2023-05-16T02:16:22;14.40;98.60
21895;DHT22;11112;51.270;7.224;2023-05-16T02:18:49;14.40;98.40
21895;DHT22;11112;51.270;7.224;2023-05-16T02:21:16;14.50;98.30
21895;DHT22;11112;51.270;7.224;2023-05-16T02:23:43;14.50;98.20
21895;DHT22;11112;51.270;7.224;2023-05-16T02:26:10;14.50;97.70
21895;DHT22;11112;51.270;7.224;2023-05-16T02:28:38;14.40;97.40
21895;DHT22;11112;51.270;7.224;2023-05-16T02:31:06;14.20;97.70
21895;DHT22;11112;51.270;7.224;2023-05-16T02:33:34;14.20;97.90
21895;DHT22;11112;51.270;7.224;2023-05-16T02:36:01;14.30;97.80
21895;DHT22;11112;51.270;7.224;2023-05-16T02:38:28;14.20;97.00
21895;DHT22;11112;51.270;7.224;2023-05-16T02:40:55;14.20;96.70
21895;DHT22;11112;51.270;7.224;2023-05-16T02:43:22;14.00;96.80
21895;DHT22;11112;51.270;7.224;2023-05-16T02:45:49;14.00;96.60
21895;DHT22;11112;51.270;7.224;2023-05-16T02:48:18;14.10;96.70
21895;DHT22;11112;51.270;7.224;2023-05-16T02:50:48;14.10;96.30
21895;DHT22;11112;51.270;7.224;2023-05-16T02:53:16;14.10;96.60
21895;DHT22;11112;51.270;7.224;2023-05-16T02:55:43;14.20;97.00
21895;DHT22;11112;51.270;7.224;2023-05-16T02:58:10;14.10;96.30
21895;DHT22;11112;51.270;7.224;2023-05-16T03:00:38;14.10;96.30
21895;DHT22;11112;51.270;7.224;2023-05-16T03:03:04;14.00;96.30
21895;DHT22;11112;51.270;7.224;2023-05-16T03:05:33;14.00;96.50
21895;DHT22;11112;51.270;7.224;2023-05-16T03:08:00;14.00;96.30
21895;DHT22;11112;51.270;7.224;2023-05-16T03:10:27;14.00;96.30
21895;DHT22;11112;51.270;7.224;2023-05-16T03:12:54;14.00;96.40
21895;DHT22;11112;51.270;7.224;2023-05-16T03:15:22;14.10;96.40
21895;DHT22;11112;51.270;7.224;2023-05-16T03:17:49;14.00;96.10
21895;DHT22;11112;51.270;7.224;2023-05-16T03:20:16;13.90;96.50
21895;DHT22;11112;51.270;7.224;2023-05-16T03:22:45;13.90;96.60
21895;DHT22;11112;51.270;7.224;2023-05-16T03:25:12;14.00;96.40
21895;DHT22;11112;51.270;7.224;2023-05-16T03:27:39;13.90;96.40
21895;DHT22;11112;51.270;7.224;2023-05-16T03:30:07;13.80;96.40
21895;DHT22;11112;51.270;7.224;2023-05-16T03:32:36;13.80;96.90
21895;DHT22;11112;51.270;7.224;2023-05-16T03:35:04;13.80;96.90
21895;DHT22;11112;51.270;7.224;2023-05-16T03:37:32;13.80;97.00
21895;DHT22;11112;51.270;7.224;2023-05-16T03:40:01;13.90;96.90
21895;DHT22;11112;51.270;7.224;2023-05-16T03:42:30;13.80;96.80
21895;DHT22;11112;51.270;7.224;2023-05-16T03:44:57;13.80;96.80
21895;DHT22;11112;51.270;7.224;2023-05-16T03:47:24;13.80;96.90
21895;DHT22;11112;51.270;7.224;2023-05-16T03:49:54;13.80;96.70
21895;DHT22;11112;51.270;7.224;2023-05-16T03:52:22;13.80;96.40
21895;DHT22;11112;51.270;7.224;2023-05-16T03:54:49;13.80;96.90
21895;DHT22;11112;51.270;7.224;2023-05-16T03:57:18;13.80;96.80
21895;DHT22;11112;51.270;7.224;2023-05-16T03:59:45;13.90;96.70
21895;DHT22;11112;51.270;7.224;2023-05-16T04:02:12;13.80;96.80
21895;DHT22;11112;51.270;7.224;2023-05-16T04:04:39;13.90;96.60
21895;DHT22;11112;51.270;7.224;2023-05-16T04:07:07;13.90;96.70
21895;DHT22;11112;51.270;7.224;2023-05-16T04:09:34;13.80;95.80
21895;DHT22;11112;51.270;7.224;2023-05-16T04:12:01;13.80;96.10
21895;DHT22;11112;51.270;7.224;2023-05-16T04:14:30;13.80;96.40
21895;DHT22;11112;51.270;7.224;2023-05-16T04:16:58;13.80;96.10
21895;DHT22;11112;51.270;7.224;2023-05-16T04:19:25;13.70;95.60
21895;DHT22;11112;51.270;7.224;2023-05-16T04:21:53;13.80;95.90
21895;DHT22;11112;51.270;7.224;2023-05-16T04:24:20;13.90;95.80
21895;DHT22;11112;51.270;7.224;2023-05-16T04:26:50;13.80;96.00
21895;DHT22;11112;51.270;7.224;2023-05-16T04:29:18;13.90;95.80
21895;DHT22;11112;51.270;7.224;2023-05-16T04:31:47;13.90;95.60
21895;DHT22;11112;51.270;7.224;2023-05-16T04:34:14;13.90;95.70
21895;DHT22;11112;51.270;7.224;2023-05-16T04:36:41;13.80;94.80
21895;DHT22;11112;51.270;7.224;2023-05-16T04:39:12;13.70;95.10
21895;DHT22;11112;51.270;7.224;2023-05-16T04:41:39;13.70;95.20
21895;DHT22;11112;51.270;7.224;2023-05-16T04:44:06;13.70;94.90
21895;DHT22;11112;51.270;7.224;2023-05-16T04:46:35;13.70;94.70
21895;DHT22;11112;51.270;7.224;2023-05-16T04:49:06;13.70;94.40
21895;DHT22;11112;51.270;7.224;2023-05-16T04:51:33;13.70;94.70
21895;DHT22;11112;51.270;7.224;2023-05-16T04:54:00;13.70;94.70
21895;DHT22;11112;51.270;7.224;2023-05-16T04:56:27;13.70;94.80
21895;DHT22;11112;51.270;7.224;2023-05-16T04:58:54;13.70;94.20
21895;DHT22;11112;51.270;7.224;2023-05-16T05:01:22;13.60;94.40
21895;DHT22;11112;51.270;7.224;2023-05-16T05:03:49;13.50;94.10
21895;DHT22;11112;51.270;7.224;2023-05-16T05:06:18;13.40;94.50
21895;DHT22;11112;51.270;7.224;2023-05-16T05:08:45;13.30;94.50
21895;DHT22;11112;51.270;7.224;2023-05-16T05:11:12;13.20;94.60
21895;DHT22;11112;51.270;7.224;2023-05-16T05:13:39;13.30;94.90
21895;DHT22;11112;51.270;7.224;2023-05-16T05:16:06;13.30;94.80
21895;DHT22;11112;51.270;7.224;2023-05-16T05:18:33;13.40;94.90
21895;DHT22;11112;51.270;7.224;2023-05-16T05:21:00;13.60;94.70
21895;DHT22;11112;51.270;7.224;2023-05-16T05:23:29;13.70;94.80
21895;DHT22;11112;51.270;7.224;2023-05-16T05:25:56;13.70;94.70
21895;DHT22;11112;51.270;7.224;2023-05-16T05:28:23;13.80;94.70
21895;DHT22;11112;51.270;7.224;2023-05-16T05:30:50;13.80;94.60
21895;DHT22;11112;51.270;7.224;2023-05-16T05:33:18;13.70;94.20
21895;DHT22;11112;51.270;7.224;2023-05-16T05:35:45;13.70;94.50
21895;DHT22;11112;51.270;7.224;2023-05-16T05:38:13;13.70;94.40
21895;DHT22;11112;51.270;7.224;2023-05-16T05:40:42;13.80;94.00
21895;DHT22;11112;51.270;7.224;2023-05-16T05:43:09;13.80;93.40
21895;DHT22;11112;51.270;7.224;2023-05-16T05:45:36;13.70;93.70
21895;DHT22;11112;51.270;7.224;2023-05-16T05:48:03;13.60;93.70
21895;DHT22;11112;51.270;7.224;2023-05-16T05:50:30;13.70;94.00
21895;DHT22;11112;51.270;7.224;2023-05-16T05:52:57;13.60;93.90
21895;DHT22;11112;51.270;7.224;2023-05-16T05:55:25;13.60;94.00
21895;DHT22;11112;51.270;7.224;2023-05-16T05:57:53;13.70;94.00
21895;DHT22;11112;51.270;7.224;2023-05-16T06:00:21;13.70;93.30
21895;DHT22;11112;51.270;7.224;2023-05-16T06:02:48;13.60;93.30
21895;DHT22;11112;51.270;7.224;2023-05-16T06:05:15;13.70;93.70
21895;DHT22;11112;51.270;7.224;2023-05-16T06:07:42;13.70;93.80
21895;DHT22;11112;51.270;7.224;2023-05-16T06:10:09;13.80;93.90
21895;DHT22;11112;51.270;7.224;2023-05-16T06:12:36;13.80;93.90
21895;DHT22;11112;51.270;7.224;2023-05-16T06:15:06;13.90;93.90
21895;DHT22;11112;51.270;7.224;2023-05-16T06:17:35;13.90;93.50
21895;DHT22;11112;51.270;7.224;2023-05-16T06:20:03;13.80;92.90
21895;DHT22;11112;51.270;7.224;2023-05-16T06:22:31;13.80;92.90
21895;DHT22;11112;51.270;7.224;2023-05-16T06:24:58;13.70;92.80
21895;DHT22;11112;51.270;7.224;2023-05-16T06:27:25;13.60;92.80
21895;DHT22;11112;51.270;7.224;2023-05-16T06:29:52;13.50;93.20
21895;DHT22;11112;51.270;7.224;2023-05-16T06:32:20;13.50;93.60
21895;DHT22;11112;51.270;7.224;2023-05-16T06:34:48;13.60;93.40
21895;DHT22;11112;51.270;7.224;2023-05-16T06:37:15;13.70;93.40
21895;DHT22;11112;51.270;7.224;2023-05-16T06:39:43;13.80;93.50
21895;DHT22;11112;51.270;7.224;2023-05-16T06:42:10;13.90;93.10
21895;DHT22;11112;51.270;7.224;2023-05-16T06:44:41;13.90;92.80
21895;DHT22;11112;51.270;7.224;2023-05-16T06:47:09;13.90;92.60
21895;DHT22;11112;51.270;7.224;2023-05-16T06:49:38;14.00;92.60
21895;DHT22;11112;51.270;7.224;2023-05-16T06:52:05;13.80;92.10
21895;DHT22;11112;51.270;7.224;2023-05-16T06:54:32;13.90;92.40
21895;DHT22;11112;51.270;7.224;2023-05-16T06:56:59;13.80;92.80
21895;DHT22;11112;51.270;7.224;2023-05-16T06:59:27;14.10;92.60
21895;DHT22;11112;51.270;7.224;2023-05-16T07:01:54;14.20;92.00
21895;DHT22;11112;51.270;7.224;2023-05-16T07:04:22;14.30;91.90
21895;DHT22;11112;51.270;7.224;2023-05-16T07:06:50;14.30;91.30
21895;DHT22;11112;51.270;7.224;2023-05-16T07:09:17;14.70;91.10
21895;DHT22;11112;51.270;7.224;2023-05-16T07:11:44;15.60;88.40
21895;DHT22;11112;51.270;7.224;2023-05-16T07:14:11;15.20;89.20
21895;DHT22;11112;51.270;7.224;2023-05-16T07:16:39;15.00;89.70
21895;DHT22;11112;51.270;7.224;2023-05-16T07:19:06;15.00;88.30
21895;DHT22;11112;51.270;7.224;2023-05-16T07:21:33;15.00;89.30
21895;DHT22;11112;51.270;7.224;2023-05-16T07:24:02;14.90;90.10
21895;DHT22;11112;51.270;7.224;2023-05-16T07:26:30;14.80;90.10
21895;DHT22;11112;51.270;7.224;2023-05-16T07:28:57;14.70;89.90
21895;DHT22;11112;51.270;7.224;2023-05-16T07:31:24;14.70;90.00
21895;DHT22;11112;51.270;7.224;2023-05-16T07:33:51;14.60;89.00
21895;DHT22;11112;51.270;7.224;2023-05-16T07:36:18;14.50;88.30
21895;DHT22;11112;51.270;7.224;2023-05-16T07:38:45;14.50;86.30
21895;DHT22;11112;51.270;7.224;2023-05-16T07:41:14;14.30;86.00
21895;DHT22;11112;51.270;7.224;2023-05-16T07:43:41;14.00;86.20
21895;DHT22;11112;51.270;7.224;2023-05-16T07:46:08;14.00;85.20
21895;DHT22;11112;51.270;7.224;2023-05-16T07:48:35;14.00;87.10
21895;DHT22;11112;51.270;7.224;2023-05-16T07:51:02;14.00;84.50
21895;DHT22;11112;51.270;7.224;2023-05-16T07:53:30;14.10;84.50
21895;DHT22;11112;51.270;7.224;2023-05-16T07:55:57;14.20;85.90
21895;DHT22;11112;51.270;7.224;2023-05-16T07:58:25;14.40;86.00
21895;DHT22;11112;51.270;7.224;2023-05-16T08:00:53;14.30;83.90
21895;DHT22;11112;51.270;7.224;2023-05-16T08:03:20;14.30;83.30
21895;DHT22;11112;51.270;7.224;2023-05-16T08:05:48;14.30;84.70
21895;DHT22;11112;51.270;7.224;2023-05-16T08:08:16;14.30;80.70
21895;DHT22;11112;51.270;7.224;2023-05-16T08:10:43;14.20;81.60
21895;DHT22;11112;51.270;7.224;2023-05-16T08:13:13;14.20;81.50
21895;DHT22;11112;51.270;7.224;2023-05-16T08:15:42;14.10;82.80
21895;DHT22;11112;51.270;7.224;2023-05-16T08:18:12;14.10;83.70
21895;DHT22;11112;51.270;7.224;2023-05-16T08:20:40;14.10;81.40
21895;DHT22;11112;51.270;7.224;2023-05-16T08:23:08;14.10;82.30
21895;DHT22;11112;51.270;7.224;2023-05-16T08:25:35;14.00;81.80
21895;DHT22;11112;51.270;7.224;2023-05-16T08:28:06;14.10;81.80
21895;DHT22;11112;51.270;7.224;2023-05-16T08:30:33;14.10;82.30
21895;DHT22;11112;51.270;7.224;2023-05-16T08:33:02;14.20;81.60
21895;DHT22;11112;51.270;7.224;2023-05-16T08:35:29;14.30;82.60
21895;DHT22;11112;51.270;7.224;2023-05-16T08:37:57;14.50;80.60
21895;DHT22;11112;51.270;7.224;2023-05-16T08:40:25;14.50;80.80
21895;DHT22;11112;51.270;7.224;2023-05-16T08:42:52;14.50;81.50
21895;DHT22;11112;51.270;7.224;2023-05-16T08:45:20;14.60;82.70
21895;DHT22;11112;51.270;7.224;2023-05-16T08:47:48;14.50;82.20
21895;DHT22;11112;51.270;7.224;2023-05-16T08:50:19;14.60;82.50
21895;DHT22;11112;51.270;7.224;2023-05-16T08:52:46;14.60;81.50
21895;DHT22;11112;51.270;7.224;2023-05-16T08:55:19;14.60;81.50
21895;DHT22;11112;51.270;7.224;2023-05-16T08:57:50;14.60;81.90
21895;DHT22;11112;51.270;7.224;2023-05-16T09:00:17;14.60;82.30
21895;DHT22;11112;51.270;7.224;2023-05-16T09:02:45;14.60;80.80
21895;DHT22;11112;51.270;7.224;2023-05-16T09:05:16;14.50;80.50
21895;DHT22;11112;51.270;7.224;2023-05-16T09:07:45;14.50;79.80
21895;DHT22;11112;51.270;7.224;2023-05-16T09:10:13;14.60;80.30
21895;DHT22;11112;51.270;7.224;2023-05-16T09:12:40;14.60;79.10
21895;DHT22;11112;51.270;7.224;2023-05-16T09:15:09;14.70;78.70
21895;DHT22;11112;51.270;7.224;2023-05-16T09:17:38;14.70;78.40
21895;DHT22;11112;51.270;7.224;2023-05-16T09:20:11;14.70;78.30
21895;DHT22;11112;51.270;7.224;2023-05-16T09:22:39;14.70;78.90
21895;DHT22;11112;51.270;7.224;2023-05-16T09:25:19;14.70;77.90
21895;DHT22;11112;51.270;7.224;2023-05-16T09:27:47;14.70;77.10
21895;DHT22;11112;51.270;7.224;2023-05-16T09:30:15;14.80;77.50
21895;DHT22;11112;51.270;7.224;2023-05-16T09:32:44;14.90;77.70
21895;DHT22;11112;51.270;7.224;2023-05-16T09:35:14;15.00;77.60
21895;DHT22;11112;51.270;7.224;2023-05-16T09:37:44;15.00;76.90
21895;DHT22;11112;51.270;7.224;2023-05-16T09:40:13;15.00;76.80
21895;DHT22;11112;51.270;7.224;2023-05-16T09:42:42;15.00;76.20
21895;DHT22;11112;51.270;7.224;2023-05-16T09:45:12;15.00;76.00
21895;DHT22;11112;51.270;7.224;2023-05-16T09:47:39;14.90;74.30
21895;DHT22;11112;51.270;7.224;2023-05-16T09:50:13;14.90;74.60
21895;DHT22;11112;51.270;7.224;2023-05-16T09:52:41;14.90;75.00
21895;DHT22;11112;51.270;7.224;2023-05-16T09:55:09;14.90;74.10
21895;DHT22;11112;51.270;7.224;2023-05-16T09:57:36;14.90;75.20
21895;DHT22;11112;51.270;7.224;2023-05-16T10:00:10;15.00;74.70
21895;DHT22;11112;51.270;7.224;2023-05-16T10:02:38;15.00;73.60
21895;DHT22;11112;51.270;7.224;2023-05-16T10:05:05;15.00;73.90
21895;DHT22;11112;51.270;7.224;2023-05-16T10:07:33;15.10;75.80
21895;DHT22;11112;51.270;7.224;2023-05-16T10:10:04;15.20;74.20
21895;DHT22;11112;51.270;7.224;2023-05-16T10:12:34;15.10;74.30
21895;DHT22;11112;51.270;7.224;2023-05-16T10:15:03;15.00;74.10
21895;DHT22;11112;51.270;7.224;2023-05-16T10:17:39;14.90;75.30
21895;DHT22;11112;51.270;7.224;2023-05-16T10:20:09;15.00;75.60
21895;DHT22;11112;51.270;7.224;2023-05-16T10:22:42;15.00;75.00
21895;DHT22;11112;51.270;7.224;2023-05-16T10:25:16;14.90;74.50
21895;DHT22;11112;51.270;7.224;2023-05-16T10:27:46;14.90;74.20
21895;DHT22;11112;51.270;7.224;2023-05-16T10:30:15;14.90;74.80
21895;DHT22;11112;51.270;7.224;2023-05-16T10:32:44;15.10;74.90
21895;DHT22;11112;51.270;7.224;2023-05-16T10:35:12;15.10;73.50
21895;DHT22;11112;51.270;7.224;2023-05-16T10:37:39;15.20;73.70
21895;DHT22;11112;51.270;7.224;2023-05-16T10:40:08;15.20;73.90
21895;DHT22;11112;51.270;7.224;2023-05-16T10:42:36;15.20;73.00
21895;DHT22;11112;51.270;7.224;2023-05-16T10:45:17;15.20;72.30
21895;DHT22;11112;51.270;7.224;2023-05-16T10:47:52;15.30;72.20
21895;DHT22;11112;51.270;7.224;2023-05-16T10:50:36;15.20;70.60
21895;DHT22;11112;51.270;7.224;2023-05-16T10:53:29;15.10;70.60
21895;DHT22;11112;51.270;7.224;2023-05-16T10:56:07;15.10;72.00
21895;DHT22;11112;51.270;7.224;2023-05-16T10:58:42;15.00;72.30
21895;DHT22;11112;51.270;7.224;2023-05-16T11:01:17;15.00;72.70
21895;DHT22;11112;51.270;7.224;2023-05-16T11:06:52;15.00;72.70
21895;DHT22;11112;51.270;7.224;2023-05-16T11:09:25;15.10;72.80
21895;DHT22;11112;51.270;7.224;2023-05-16T11:11:55;15.20;73.30
21895;DHT22;11112;51.270;7.224;2023-05-16T11:14:25;15.30;74.40
21895;DHT22;11112;51.270;7.224;2023-05-16T11:17:01;15.40;74.30
21895;DHT22;11112;51.270;7.224;2023-05-16T11:19:31;15.40;73.60
21895;DHT22;11112;51.270;7.224;2023-05-16T11:22:21;15.40;73.90
21895;DHT22;11112;51.270;7.224;2023-05-16T11:24:59;15.40;73.50
21895;DHT22;11112;51.270;7.224;2023-05-16T11:27:29;15.40;73.80
21895;DHT22;11112;51.270;7.224;2023-05-16T11:29:59;15.40;74.10
21895;DHT22;11112;51.270;7.224;2023-05-16T11:32:28;15.40;74.50
21895;DHT22;11112;51.270;7.224;2023-05-16T11:34:57;15.50;73.80
21895;DHT22;11112;51.270;7.224;2023-05-16T11:37:24;15.50;73.90
21895;DHT22;11112;51.270;7.224;2023-05-16T11:39:51;15.40;73.90
21895;DHT22;11112;51.270;7.224;2023-05-16T11:42:18;15.40;73.90
21895;DHT22;11112;51.270;7.224;2023-05-16T11:44:46;15.40;75.00
21895;DHT22;11112;51.270;7.224;2023-05-16T11:47:13;15.40;75.20
21895;DHT22;11112;51.270;7.224;2023-05-16T11:49:42;15.50;75.60
21895;DHT22;11112;51.270;7.224;2023-05-16T11:52:09;15.50;75.00
21895;DHT22;11112;51.270;7.224;2023-05-16T11:54:36;15.60;74.40
21895;DHT22;11112;51.270;7.224;2023-05-16T11:57:04;15.60;72.30
21895;DHT22;11112;51.270;7.224;2023-05-16T11:59:31;15.60;72.00
21895;DHT22;11112;51.270;7.224;2023-05-16T12:02:02;15.50;71.90
21895;DHT22;11112;51.270;7.224;2023-05-16T12:04:30;15.60;71.30
21895;DHT22;11112;51.270;7.224;2023-05-16T12:07:00;15.70;71.50
21895;DHT22;11112;51.270;7.224;2023-05-16T12:09:28;15.70;70.90
21895;DHT22;11112;51.270;7.224;2023-05-16T12:11:57;15.50;71.10
21895;DHT22;11112;51.270;7.224;2023-05-16T12:14:24;15.50;72.30
21895;DHT22;11112;51.270;7.224;2023-05-16T12:16:52;15.50;73.40
21895;DHT22;11112;51.270;7.224;2023-05-16T12:19:19;15.50;73.80
21895;DHT22;11112;51.270;7.224;2023-05-16T12:21:50;15.50;73.50
21895;DHT22;11112;51.270;7.224;2023-05-16T12:24:20;15.50;74.60
21895;DHT22;11112;51.270;7.224;2023-05-16T12:26:47;15.50;75.20
21895;DHT22;11112;51.270;7.224;2023-05-16T12:29:14;15.50;75.90
21895;DHT22;11112;51.270;7.224;2023-05-16T12:31:41;15.60;76.20
21895;DHT22;11112;51.270;7.224;2023-05-16T12:34:15;15.60;76.00
21895;DHT22;11112;51.270;7.224;2023-05-16T12:36:43;15.50;76.90
21895;DHT22;11112;51.270;7.224;2023-05-16T12:39:12;15.50;77.60
21895;DHT22;11112;51.270;7.224;2023-05-16T12:41:41;15.60;76.50
21895;DHT22;11112;51.270;7.224;2023-05-16T12:44:12;15.60;76.60
21895;DHT22;11112;51.270;7.224;2023-05-16T12:46:43;15.60;76.30
21895;DHT22;11112;51.270;7.224;2023-05-16T12:49:11;15.60;76.00
21895;DHT22;11112;51.270;7.224;2023-05-16T12:51:38;15.70;74.00
21895;DHT22;11112;51.270;7.224;2023-05-16T12:54:08;15.70;73.30
21895;DHT22;11112;51.270;7.224;2023-05-16T12:56:36;15.80;72.20
21895;DHT22;11112;51.270;7.224;2023-05-16T12:59:06;15.80;71.60
21895;DHT22;11112;51.270;7.224;2023-05-16T13:01:33;15.80;71.20
21895;DHT22;11112;51.270;7.224;2023-05-16T13:04:03;15.80;70.90
21895;DHT22;11112;51.270;7.224;2023-05-16T13:06:30;15.80;70.10
21895;DHT22;11112;51.270;7.224;2023-05-16T13:08:57;15.70;70.40
21895;DHT22;11112;51.270;7.224;2023-05-16T13:11:24;15.70;71.00
21895;DHT22;11112;51.270;7.224;2023-05-16T13:13:52;15.70;71.60
21895;DHT22;11112;51.270;7.224;2023-05-16T13:16:20;15.70;71.60
21895;DHT22;11112;51.270;7.224;2023-05-16T13:18:47;15.70;71.80
21895;DHT22;11112;51.270;7.224;2023-05-16T13:21:14;15.80;73.20
21895;DHT22;11112;51.270;7.224;2023-05-16T13:23:42;15.80;72.50
21895;DHT22;11112;51.270;7.224;2023-05-16T13:26:09;15.80;73.50
21895;DHT22;11112;51.270;7.224;2023-05-16T13:28:42;15.90;72.90
21895;DHT22;11112;51.270;7.224;2023-05-16T13:31:09;15.90;73.00
21895;DHT22;11112;51.270;7.224;2023-05-16T13:33:37;15.80;72.10
21895;DHT22;11112;51.270;7.224;2023-05-16T13:36:04;15.80;73.70
21895;DHT22;11112;51.270;7.224;2023-05-16T13:38:32;15.90;73.70
21895;DHT22;11112;51.270;7.224;2023-05-16T13:40:59;15.90;73.10
21895;DHT22;11112;51.270;7.224;2023-05-16T13:43:26;15.90;72.70
21895;DHT22;11112;51.270;7.224;2023-05-16T13:45:53;16.00;73.20
21895;DHT22;11112;51.270;7.224;2023-05-16T13:48:20;16.00;73.10
21895;DHT22;11112;51.270;7.224;2023-05-16T13:50:49;16.00;70.70
21895;DHT22;11112;51.270;7.224;2023-05-16T13:53:16;16.00;70.10
21895;DHT22;11112;51.270;7.224;2023-05-16T13:55:43;16.10;66.60
21895;DHT22;11112;51.270;7.224;2023-05-16T13:58:10;16.10;61.60
21895;DHT22;11112;51.270;7.224;2023-05-16T14:00:37;16.10;59.90
21895;DHT22;11112;51.270;7.224;2023-05-16T14:03:05;16.10;59.90
21895;DHT22;11112;51.270;7.224;2023-05-16T14:05:32;16.10;60.30
21895;DHT22;11112;51.270;7.224;2023-05-16T14:08:00;16.10;60.70
21895;DHT22;11112;51.270;7.224;2023-05-16T14:10:27;16.10;60.00
21895;DHT22;11112;51.270;7.224;2023-05-16T14:12:56;16.10;61.00
21895;DHT22;11112;51.270;7.224;2023-05-16T14:15:23;16.00;61.80
21895;DHT22;11112;51.270;7.224;2023-05-16T14:17:50;16.00;62.70
21895;DHT22;11112;51.270;7.224;2023-05-16T14:20:17;15.90;64.70
21895;DHT22;11112;51.270;7.224;2023-05-16T14:22:44;15.90;64.50
21895;DHT22;11112;51.270;7.224;2023-05-16T14:25:12;15.90;65.50
21895;DHT22;11112;51.270;7.224;2023-05-16T14:27:39;15.90;66.00
21895;DHT22;11112;51.270;7.224;2023-05-16T14:30:07;15.90;65.40
21895;DHT22;11112;51.270;7.224;2023-05-16T14:32:35;15.90;65.40
21895;DHT22;11112;51.270;7.224;2023-05-16T14:35:02;15.90;65.90
21895;DHT22;11112;51.270;7.224;2023-05-16T14:37:31;15.90;65.40
21895;DHT22;11112;51.270;7.224;2023-05-16T14:39:58;16.00;65.90
21895;DHT22;11112;51.270;7.224;2023-05-16T14:42:26;15.90;64.00
21895;DHT22;11112;51.270;7.224;2023-05-16T14:44:53;15.90;64.30
21895;DHT22;11112;51.270;7.224;2023-05-16T14:47:20;15.90;65.60
21895;DHT22;11112;51.270;7.224;2023-05-16T14:49:47;16.00;65.90
21895;DHT22;11112;51.270;7.224;2023-05-16T14:52:14;15.90;65.40
21895;DHT22;11112;51.270;7.224;2023-05-16T14:54:41;15.90;65.20
21895;DHT22;11112;51.270;7.224;2023-05-16T14:57:09;15.80;64.10
21895;DHT22;11112;51.270;7.224;2023-05-16T14:59:37;15.80;64.00
21895;DHT22;11112;51.270;7.224;2023-05-16T15:02:04;15.90;64.50
21895;DHT22;11112;51.270;7.224;2023-05-16T15:04:35;15.80;65.10
21895;DHT22;11112;51.270;7.224;2023-05-16T15:07:02;15.80;65.90
21895;DHT22;11112;51.270;7.224;2023-05-16T15:09:30;15.80;66.40
21895;DHT22;11112;51.270;7.224;2023-05-16T15:11:57;15.70;67.00
21895;DHT22;11112;51.270;7.224;2023-05-16T15:14:24;15.70;67.20
21895;DHT22;11112;51.270;7.224;2023-05-16T15:16:53;15.70;67.40
21895;DHT22;11112;51.270;7.224;2023-05-16T15:19:20;15.80;67.70
21895;DHT22;11112;51.270;7.224;2023-05-16T15:21:47;15.80;68.50
21895;DHT22;11112;51.270;7.224;2023-05-16T15:24:14;15.80;67.70
21895;DHT22;11112;51.270;7.224;2023-05-16T15:26:42;15.70;67.70
21895;DHT22;11112;51.270;7.224;2023-05-16T15:29:09;15.70;68.30
21895;DHT22;11112;51.270;7.224;2023-05-16T15:31:36;15.60;69.40
21895;DHT22;11112;51.270;7.224;2023-05-16T15:34:05;15.60;69.10
21895;DHT22;11112;51.270;7.224;2023-05-16T15:36:33;15.60;69.70
21895;DHT22;11112;51.270;7.224;2023-05-16T15:39:00;15.60;70.00
21895;DHT22;11112;51.270;7.224;2023-05-16T15:41:27;15.60;70.90